sensor_id;sensor_type;location;lat;lon;timestamp;temperature;humidity
10083;DHT22;5080;48.528;8.078;2023-07-29T00:00:12;18.90;99.90
10083;DHT22;5080;48.528;8.078;2023-07-29T00:02:39;18.90;99.90
10083;DHT22;5080;48.528;8.078;2023-07-29T00:05:06;19.00;99.90
10083;DHT22;5080;48.528;8.078;2023-07-29T00:07:34;19.00;99.90
10083;DHT22;5080;48.528;8.078;2023-07-29T00:10:01;19.00;99.90
10083;DHT22;5080;48.528;8.078;2023-07-29T00:12:28;19.00;99.90
10083;DHT22;5080;48.528;8.078;2023-07-29T00:14:55;19.00;99.90
10083;DHT22;5080;48.528;8.078;2023-07-29T00:17:22;19.00;99.90
10083;DHT22;5080;48.528;8.078;2023-07-29T00:19:49;19.00;99.90
10083;DHT22;5080;48.528;8.078;2023-07-29T00:22:16;19.00;99.90
10083;DHT22;5080;48.528;8.078;2023-07-29T00:24:44;19.00;99.90
10083;DHT22;5080;48.528;8.078;2023-07-29T00:27:10;19.00;99.90
10083;DHT22;5080;48.528;8.078;2023-07-29T00:29:37;19.00;99.90
10083;DHT22;5080;48.528;8.078;2023-07-29T00:32:05;19.00;99.90
10083;DHT22;5080;48.528;8.078;2023-07-29T00:34:32;19.10;99.90
10083;DHT22;5080;48.528;8.078;2023-07-29T00:36:58;19.00;99.90
10083;DHT22;5080;48.528;8.078;2023-07-29T00:39:25;19.00;99.90
10083;DHT22;5080;48.528;8.078;2023-07-29T00:41:53;19.10;99.90
10083;DHT22;5080;48.528;8.078;2023-07-29T00:44:20;19.10;99.90
10083;DHT22;5080;48.528;8.078;2023-07-29T00:46:47;19.10;99.90
10083;DHT22;5080;48.528;8.078;2023-07-29T00:49:16;19.10;99.90
10083;DHT22;5080;48.528;8.078;2023-07-29T00:51:43;19.00;99.90
10083;DHT22;5080;48.528;8.078;2023-07-29T00:54:10;19.00;99.90
10083;DHT22;5080;48.528;8.078;2023-07-29T00:56:37;19.00;99.90
10083;DHT22;5080;48.528;8.078;2023-07-29T00:59:06;19.00;99.90
10083;DHT22;5080;48.528;8.078;2023-07-29T01:01:33;19.00;99.90
10083;DHT22;5080;48.528;8.078;2023-07-29T01:04:00;18.90;99.90
10083;DHT22;5080;48.528;8.078;2023-07-29T01:06:33;18.80;99.90
10083;DHT22;5080;48.528;8.078;2023-07-29T01:09:04;18.90;99.90
10083;DHT22;5080;48.528;8.078;2023-07-29T01:11:38;18.90;99.90
10083;DHT22;5080;48.528;8.078;2023-07-29T01:14:13;18.80;99.90
10083;DHT22;5080;48.528;8.078;2023-07-29T01:16:49;18.80;99.90
10083;DHT22;5080;48.528;8.078;2023-07-29T01:19:29;18.80;99.90
10083;DHT22;5080;48.528;8.078;2023-07-29T01:22:00;18.80;99.90
10083;DHT22;5080;48.528;8.078;2023-07-29T01:24:29;18.80;99.90
10083;DHT22;5080;48.528;8.078;2023-07-29T01:26:56;18.90;99.90
10083;DHT22;5080;48.528;8.078;2023-07-29T01:29:22;18.90;99.90
10083;DHT22;5080;48.528;8.078;2023-07-29T01:31:51;18.90;99.90
10083;DHT22;5080;48.528;8.078;2023-07-29T01:34:26;19.00;99.90
10083;DHT22;5080;48.528;8.078;2023-07-29T01:36:57;19.00;99.90
10083;DHT22;5080;48.528;8.078;2023-07-29T01:39:29;19.00;99.90
10083;DHT22;5080;48.528;8.078;2023-07-29T01:41:59;19.00;99.90
10083;DHT22;5080;48.528;8.078;2023-07-29T01:44:26;19.10;99.90
10083;DHT22;5080;48.528;8.078;2023-07-29T01:46:55;19.10;99.90
10083;DHT22;5080;48.528;8.078;2023-07-29T01:49:22;19.10;99.90
10083;DHT22;5080;48.528;8.078;2023-07-29T01:51:48;19.10;99.90
10083;DHT22;5080;48.528;8.078;2023-07-29T01:54:15;19.10;99.90
10083;DHT22;5080;48.528;8.078;2023-07-29T01:56:43;19.10;99.90
10083;DHT22;5080;48.528;8.078;2023-07-29T01:59:10;19.10;99.90
10083;DHT22;5080;48.528;8.078;2023-07-29T02:01:39;19.10;99.90
10083;DHT22;5080;48.528;8.078;2023-07-29T02:04:05;19.00;99.90
10083;DHT22;5080;48.528;8.078;2023-07-29T02:06:32;19.00;99.90
10083;DHT22;5080;48.528;8.078;2023-07-29T02:08:59;19.00;99.90
10083;DHT22;5080;48.528;8.078;2023-07-29T02:11:26;19.00;99.90
10083;DHT22;5080;48.528;8.078;2023-07-29T02:13:55;19.00;99.90
10083;DHT22;5080;48.528;8.078;2023-07-29T02:16:22;19.00;99.90
10083;DHT22;5080;48.528;8.078;2023-07-29T02:18:49;19.00;99.90
10083;DHT22;5080;48.528;8.078;2023-07-29T02:21:16;19.00;99.90
10083;DHT22;5080;48.528;8.078;2023-07-29T02:23:43;19.00;99.90
10083;DHT22;5080;48.528;8.078;2023-07-29T02:26:10;19.00;99.90
10083;DHT22;5080;48.528;8.078;2023-07-29T02:28:36;19.10;99.90
10083;DHT22;5080;48.528;8.078;2023-07-29T02:31:14;19.10;99.90
10083;DHT22;5080;48.528;8.078;2023-07-29T02:33:42;19.10;99.90
10083;DHT22;5080;48.528;8.078;2023-07-29T02:36:08;19.10;99.90
10083;DHT22;5080;48.528;8.078;2023-07-29T02:38:35;19.10;99.90
10083;DHT22;5080;48.528;8.078;2023-07-29T02:41:02;19.20;99.90
10083;DHT22;5080;48.528;8.078;2023-07-29T02:43:29;19.20;99.90
10083;DHT22;5080;48.528;8.078;2023-07-29T02:45:56;19.20;99.90
10083;DHT22;5080;48.528;8.078;2023-07-29T02:48:25;19.10;99.90
10083;DHT22;5080;48.528;8.078;2023-07-29T02:50:52;19.20;99.90
10083;DHT22;5080;48.528;8.078;2023-07-29T02:53:19;19.10;99.90
10083;DHT22;5080;48.528;8.078;2023-07-29T02:55:45;19.10;99.90
10083;DHT22;5080;48.528;8.078;2023-07-29T02:58:12;19.10;99.90
10083;DHT22;5080;48.528;8.078;2023-07-29T03:00:39;19.10;99.90
10083;DHT22;5080;48.528;8.078;2023-07-29T03:03:07;19.10;99.90
10083;DHT22;5080;48.528;8.078;2023-07-29T03:05:35;19.10;99.90
10083;DHT22;5080;48.528;8.078;2023-07-29T03:08:03;19.10;99.90
10083;DHT22;5080;48.528;8.078;2023-07-29T03:10:30;19.10;99.90
10083;DHT22;5080;48.528;8.078;2023-07-29T03:12:57;19.10;99.90
10083;DHT22;5080;48.528;8.078;2023-07-29T03:15:24;19.20;99.90
10083;DHT22;5080;48.528;8.078;2023-07-29T03:17:51;19.10;99.90
10083;DHT22;5080;48.528;8.078;2023-07-29T03:20:18;19.20;99.90
10083;DHT22;5080;48.528;8.078;2023-07-29T03:22:47;19.20;99.90
10083;DHT22;5080;48.528;8.078;2023-07-29T03:25:14;19.10;99.90
10083;DHT22;5080;48.528;8.078;2023-07-29T03:27:40;19.20;99.90
10083;DHT22;5080;48.528;8.078;2023-07-29T03:30:07;19.20;99.90
10083;DHT22;5080;48.528;8.078;2023-07-29T03:32:34;19.30;99.90
10083;DHT22;5080;48.528;8.078;2023-07-29T03:35:01;19.40;99.90
10083;DHT22;5080;48.528;8.078;2023-07-29T03:37:28;19.40;99.90
10083;DHT22;5080;48.528;8.078;2023-07-29T03:39:57;19.40;99.90
10083;DHT22;5080;48.528;8.078;2023-07-29T03:42:24;19.40;99.90
10083;DHT22;5080;48.528;8.078;2023-07-29T03:44:50;19.50;99.90
10083;DHT22;5080;48.528;8.078;2023-07-29T03:47:17;19.40;99.90
10083;DHT22;5080;48.528;8.078;2023-07-29T03:49:44;19.40;99.90
10083;DHT22;5080;48.528;8.078;2023-07-29T03:52:11;19.50;99.90
10083;DHT22;5080;48.528;8.078;2023-07-29T03:54:38;19.40;99.90
10083;DHT22;5080;48.528;8.078;2023-07-29T03:57:06;19.40;99.90
10083;DHT22;5080;48.528;8.078;2023-07-29T03:59:33;19.40;99.90
10083;DHT22;5080;48.528;8.078;2023-07-29T04:02:00;19.40;99.90
10083;DHT22;5080;48.528;8.078;2023-07-29T04:04:26;19.30;99.90
10083;DHT22;5080;48.528;8.078;2023-07-29T04:06:53;19.40;99.90
10083;DHT22;5080;48.528;8.078;2023-07-29T04:09:20;19.30;99.90
10083;DHT22;5080;48.528;8.078;2023-07-29T04:11:47;19.30;99.90
10083;DHT22;5080;48.528;8.078;2023-07-29T04:14:15;19.30;99.90
10083;DHT22;5080;48.528;8.078;2023-07-29T04:16:43;19.30;99.90
10083;DHT22;5080;48.528;8.078;2023-07-29T04:19:10;19.30;99.90
10083;DHT22;5080;48.528;8.078;2023-07-29T04:21:37;19.30;99.90
10083;DHT22;5080;48.528;8.078;2023-07-29T04:24:04;19.30;99.90
10083;DHT22;5080;48.528;8.078;2023-07-29T04:26:31;19.40;99.90
10083;DHT22;5080;48.528;8.078;2023-07-29T04:28:58;19.40;99.90
10083;DHT22;5080;48.528;8.078;2023-07-29T04:31:26;19.30;99.90
10083;DHT22;5080;48.528;8.078;2023-07-29T04:33:53;19.40;99.90
10083;DHT22;5080;48.528;8.078;2023-07-29T04:36:20;19.40;99.90
10083;DHT22;5080;48.528;8.078;2023-07-29T04:38:46;19.30;99.90
10083;DHT22;5080;48.528;8.078;2023-07-29T04:41:13;19.30;99.90
10083;DHT22;5080;48.528;8.078;2023-07-29T04:43:40;19.30;99.90
10083;DHT22;5080;48.528;8.078;2023-07-29T04:46:07;19.30;99.90
10083;DHT22;5080;48.528;8.078;2023-07-29T04:48:35;19.30;99.90
10083;DHT22;5080;48.528;8.078;2023-07-29T04:51:02;19.30;99.90
10083;DHT22;5080;48.528;8.078;2023-07-29T04:53:29;19.30;99.90
10083;DHT22;5080;48.528;8.078;2023-07-29T04:55:56;19.30;99.90
10083;DHT22;5080;48.528;8.078;2023-07-29T04:58:23;19.40;99.90
10083;DHT22;5080;48.528;8.078;2023-07-29T05:00:50;19.40;99.90
10083;DHT22;5080;48.528;8.078;2023-07-29T05:03:16;19.40;99.90
10083;DHT22;5080;48.528;8.078;2023-07-29T05:05:44;19.50;99.90
10083;DHT22;5080;48.528;8.078;2023-07-29T05:08:11;19.50;99.90
10083;DHT22;5080;48.528;8.078;2023-07-29T05:10:38;19.50;99.90
10083;DHT22;5080;48.528;8.078;2023-07-29T05:13:05;19.50;99.90
10083;DHT22;5080;48.528;8.078;2023-07-29T05:15:32;19.50;99.90
10083;DHT22;5080;48.528;8.078;2023-07-29T05:17:59;19.50;99.90
10083;DHT22;5080;48.528;8.078;2023-07-29T05:20:25;19.50;99.90
10083;DHT22;5080;48.528;8.078;2023-07-29T05:22:54;19.60;99.90
10083;DHT22;5080;48.528;8.078;2023-07-29T05:25:20;19.60;99.90
10083;DHT22;5080;48.528;8.078;2023-07-29T05:27:47;19.60;99.90
10083;DHT22;5080;48.528;8.078;2023-07-29T05:30:14;19.70;99.90
10083;DHT22;5080;48.528;8.078;2023-07-29T05:32:41;19.70;99.90
10083;DHT22;5080;48.528;8.078;2023-07-29T05:35:08;19.80;99.90
10083;DHT22;5080;48.528;8.078;2023-07-29T05:37:37;19.80;99.90
10083;DHT22;5080;48.528;8.078;2023-07-29T05:40:07;19.80;99.90
10083;DHT22;5080;48.528;8.078;2023-07-29T05:42:34;19.90;99.90
10083;DHT22;5080;48.528;8.078;2023-07-29T05:45:01;19.80;99.90
10083;DHT22;5080;48.528;8.078;2023-07-29T05:47:28;19.80;99.90
10083;DHT22;5080;48.528;8.078;2023-07-29T05:49:55;19.90;99.90
10083;DHT22;5080;48.528;8.078;2023-07-29T05:52:21;19.90;99.90
10083;DHT22;5080;48.528;8.078;2023-07-29T05:54:48;19.90;99.90
10083;DHT22;5080;48.528;8.078;2023-07-29T05:57:16;19.90;99.90
10083;DHT22;5080;48.528;8.078;2023-07-29T05:59:43;19.70;99.90
10083;DHT22;5080;48.528;8.078;2023-07-29T06:02:10;19.80;99.90
10083;DHT22;5080;48.528;8.078;2023-07-29T06:04:36;19.80;99.90
10083;DHT22;5080;48.528;8.078;2023-07-29T06:07:03;19.90;99.90
10083;DHT22;5080;48.528;8.078;2023-07-29T06:09:30;20.00;99.90
10083;DHT22;5080;48.528;8.078;2023-07-29T06:11:57;20.00;99.90
10083;DHT22;5080;48.528;8.078;2023-07-29T06:14:25;20.10;99.90
10083;DHT22;5080;48.528;8.078;2023-07-29T06:16:52;20.10;99.90
10083;DHT22;5080;48.528;8.078;2023-07-29T06:19:21;20.20;99.90
10083;DHT22;5080;48.528;8.078;2023-07-29T06:21:48;20.20;99.90
10083;DHT22;5080;48.528;8.078;2023-07-29T06:24:15;20.20;99.90
10083;DHT22;5080;48.528;8.078;2023-07-29T06:26:41;20.20;99.90
10083;DHT22;5080;48.528;8.078;2023-07-29T06:29:08;20.20;99.90
10083;DHT22;5080;48.528;8.078;2023-07-29T06:31:36;20.10;99.90
10083;DHT22;5080;48.528;8.078;2023-07-29T06:34:03;20.10;99.90
10083;DHT22;5080;48.528;8.078;2023-07-29T06:36:30;20.10;99.90
10083;DHT22;5080;48.528;8.078;2023-07-29T06:38:57;20.20;99.90
10083;DHT22;5080;48.528;8.078;2023-07-29T06:41:24;20.20;99.90
10083;DHT22;5080;48.528;8.078;2023-07-29T06:43:50;20.20;99.90
10083;DHT22;5080;48.528;8.078;2023-07-29T06:46:17;20.20;99.90
10083;DHT22;5080;48.528;8.078;2023-07-29T06:48:45;20.30;99.90
10083;DHT22;5080;48.528;8.078;2023-07-29T06:51:12;20.30;99.90
10083;DHT22;5080;48.528;8.078;2023-07-29T06:53:39;20.40;99.90
10083;DHT22;5080;48.528;8.078;2023-07-29T06:56:06;20.40;99.90
10083;DHT22;5080;48.528;8.078;2023-07-29T06:58:33;20.50;99.90
10083;DHT22;5080;48.528;8.078;2023-07-29T07:00:59;20.60;99.90
10083;DHT22;5080;48.528;8.078;2023-07-29T07:03:26;20.60;99.90
10083;DHT22;5080;48.528;8.078;2023-07-29T07:05:55;20.70;99.90
10083;DHT22;5080;48.528;8.078;2023-07-29T07:08:21;20.80;99.90
10083;DHT22;5080;48.528;8.078;2023-07-29T07:10:48;21.20;99.90
10083;DHT22;5080;48.528;8.078;2023-07-29T07:13:15;21.50;99.90
10083;DHT22;5080;48.528;8.078;2023-07-29T07:15:42;21.60;99.90
10083;DHT22;5080;48.528;8.078;2023-07-29T07:18:09;21.80;99.90
10083;DHT22;5080;48.528;8.078;2023-07-29T07:20:36;21.90;99.90
10083;DHT22;5080;48.528;8.078;2023-07-29T07:23:04;22.10;99.90
10083;DHT22;5080;48.528;8.078;2023-07-29T07:25:34;22.30;99.90
10083;DHT22;5080;48.528;8.078;2023-07-29T07:28:01;22.30;99.90
10083;DHT22;5080;48.528;8.078;2023-07-29T07:30:28;22.20;99.90
10083;DHT22;5080;48.528;8.078;2023-07-29T07:32:54;22.00;99.90
10083;DHT22;5080;48.528;8.078;2023-07-29T07:35:21;21.90;99.90
10083;DHT22;5080;48.528;8.078;2023-07-29T07:37:48;21.90;99.90
10083;DHT22;5080;48.528;8.078;2023-07-29T07:40:17;22.00;99.90
10083;DHT22;5080;48.528;8.078;2023-07-29T07:42:44;22.00;99.90
10083;DHT22;5080;48.528;8.078;2023-07-29T07:45:11;22.00;99.90
10083;DHT22;5080;48.528;8.078;2023-07-29T07:47:38;22.00;99.90
10083;DHT22;5080;48.528;8.078;2023-07-29T07:50:05;22.10;99.90
10083;DHT22;5080;48.528;8.078;2023-07-29T07:52:32;22.10;99.90
10083;DHT22;5080;48.528;8.078;2023-07-29T07:54:59;22.20;99.90
10083;DHT22;5080;48.528;8.078;2023-07-29T07:57:27;22.20;99.90
10083;DHT22;5080;48.528;8.078;2023-07-29T07:59:54;22.20;99.90
10083;DHT22;5080;48.528;8.078;2023-07-29T08:02:21;22.30;99.90
10083;DHT22;5080;48.528;8.078;2023-07-29T08:04:48;22.40;99.90
10083;DHT22;5080;48.528;8.078;2023-07-29T08:07:15;22.50;99.90
10083;DHT22;5080;48.528;8.078;2023-07-29T08:09:41;22.50;99.90
10083;DHT22;5080;48.528;8.078;2023-07-29T08:12:08;22.70;99.90
10083;DHT22;5080;48.528;8.078;2023-07-29T08:14:36;22.80;99.90
10083;DHT22;5080;48.528;8.078;2023-07-29T08:17:04;22.90;99.90
10083;DHT22;5080;48.528;8.078;2023-07-29T08:19:31;22.90;99.90
10083;DHT22;5080;48.528;8.078;2023-07-29T08:21:57;22.90;99.90
10083;DHT22;5080;48.528;8.078;2023-07-29T08:24:24;22.90;99.90
10083;DHT22;5080;48.528;8.078;2023-07-29T08:26:51;23.00;99.90
10083;DHT22;5080;48.528;8.078;2023-07-29T08:29:18;23.20;99.90
10083;DHT22;5080;48.528;8.078;2023-07-29T08:31:46;23.20;99.90
10083;DHT22;5080;48.528;8.078;2023-07-29T08:34:13;23.20;99.90
10083;DHT22;5080;48.528;8.078;2023-07-29T08:36:40;23.30;99.90
10083;DHT22;5080;48.528;8.078;2023-07-29T08:39:06;23.40;99.90
10083;DHT22;5080;48.528;8.078;2023-07-29T08:41:41;23.40;99.90
10083;DHT22;5080;48.528;8.078;2023-07-29T08:44:20;23.40;99.90
10083;DHT22;5080;48.528;8.078;2023-07-29T08:46:49;23.60;99.90
10083;DHT22;5080;48.528;8.078;2023-07-29T08:49:16;23.90;99.90
10083;DHT22;5080;48.528;8.078;2023-07-29T08:51:45;24.00;99.90
10083;DHT22;5080;48.528;8.078;2023-07-29T08:54:13;24.00;99.90
10083;DHT22;5080;48.528;8.078;2023-07-29T08:56:40;24.00;99.90
10083;DHT22;5080;48.528;8.078;2023-07-29T08:59:08;24.20;99.90
10083;DHT22;5080;48.528;8.078;2023-07-29T09:01:36;24.10;99.90
10083;DHT22;5080;48.528;8.078;2023-07-29T09:04:05;24.00;99.90
10083;DHT22;5080;48.528;8.078;2023-07-29T09:06:32;23.90;99.90
10083;DHT22;5080;48.528;8.078;2023-07-29T09:08:59;23.90;99.90
10083;DHT22;5080;48.528;8.078;2023-07-29T09:11:26;23.80;99.90
10083;DHT22;5080;48.528;8.078;2023-07-29T09:13:53;23.70;99.90
10083;DHT22;5080;48.528;8.078;2023-07-29T09:16:21;23.70;99.90
10083;DHT22;5080;48.528;8.078;2023-07-29T09:18:48;23.70;99.90
10083;DHT22;5080;48.528;8.078;2023-07-29T09:21:17;23.80;99.90
10083;DHT22;5080;48.528;8.078;2023-07-29T09:23:45;23.90;99.90
10083;DHT22;5080;48.528;8.078;2023-07-29T09:26:11;23.90;99.90
10083;DHT22;5080;48.528;8.078;2023-07-29T09:28:39;23.90;99.90
10083;DHT22;5080;48.528;8.078;2023-07-29T09:31:06;24.00;99.90
10083;DHT22;5080;48.528;8.078;2023-07-29T09:33:35;24.20;99.90
10083;DHT22;5080;48.528;8.078;2023-07-29T09:36:03;24.60;99.90
10083;DHT22;5080;48.528;8.078;2023-07-29T09:38:31;24.90;99.90
10083;DHT22;5080;48.528;8.078;2023-07-29T09:40:58;25.00;99.90
10083;DHT22;5080;48.528;8.078;2023-07-29T09:43:26;25.00;99.90
10083;DHT22;5080;48.528;8.078;2023-07-29T09:45:55;25.20;99.90
10083;DHT22;5080;48.528;8.078;2023-07-29T09:48:25;25.30;99.90
10083;DHT22;5080;48.528;8.078;2023-07-29T09:50:54;25.50;99.90
10083;DHT22;5080;48.528;8.078;2023-07-29T09:53:21;25.70;99.90
10083;DHT22;5080;48.528;8.078;2023-07-29T09:55:49;25.70;99.90
10083;DHT22;5080;48.528;8.078;2023-07-29T09:58:27;25.50;99.90
10083;DHT22;5080;48.528;8.078;2023-07-29T10:00:53;25.20;99.90
10083;DHT22;5080;48.528;8.078;2023-07-29T10:03:21;25.20;99.90
10083;DHT22;5080;48.528;8.078;2023-07-29T10:05:48;25.20;99.90
10083;DHT22;5080;48.528;8.078;2023-07-29T10:08:16;25.10;99.90
10083;DHT22;5080;48.528;8.078;2023-07-29T10:10:44;25.20;99.90
10083;DHT22;5080;48.528;8.078;2023-07-29T10:13:13;25.40;99.90
10083;DHT22;5080;48.528;8.078;2023-07-29T10:15:40;25.50;99.90
10083;DHT22;5080;48.528;8.078;2023-07-29T10:18:07;25.60;99.90
10083;DHT22;5080;48.528;8.078;2023-07-29T10:20:34;25.70;99.90
10083;DHT22;5080;48.528;8.078;2023-07-29T10:23:03;25.80;99.90
10083;DHT22;5080;48.528;8.078;2023-07-29T10:25:39;25.90;99.90
10083;DHT22;5080;48.528;8.078;2023-07-29T10:28:12;26.20;99.90
10083;DHT22;5080;48.528;8.078;2023-07-29T10:30:41;26.30;99.90
10083;DHT22;5080;48.528;8.078;2023-07-29T10:33:08;26.20;99.90
10083;DHT22;5080;48.528;8.078;2023-07-29T10:35:37;26.10;99.90
10083;DHT22;5080;48.528;8.078;2023-07-29T10:38:06;25.80;99.90
10083;DHT22;5080;48.528;8.078;2023-07-29T10:40:47;25.60;99.90
10083;DHT22;5080;48.528;8.078;2023-07-29T10:43:19;25.40;99.90
10083;DHT22;5080;48.528;8.078;2023-07-29T10:45:50;25.30;99.90
10083;DHT22;5080;48.528;8.078;2023-07-29T10:48:41;25.30;99.90
10083;DHT22;5080;48.528;8.078;2023-07-29T10:51:29;25.30;99.90
10083;DHT22;5080;48.528;8.078;2023-07-29T10:53:59;25.30;99.90
10083;DHT22;5080;48.528;8.078;2023-07-29T10:56:28;25.50;99.90
10083;DHT22;5080;48.528;8.078;2023-07-29T10:59:00;25.60;99.90
10083;DHT22;5080;48.528;8.078;2023-07-29T11:01:29;25.60;99.90
10083;DHT22;5080;48.528;8.078;2023-07-29T11:04:26;25.70;99.90
10083;DHT22;5080;48.528;8.078;2023-07-29T11:07:19;25.80;99.90
10083;DHT22;5080;48.528;8.078;2023-07-29T11:09:56;26.00;99.90
10083;DHT22;5080;48.528;8.078;2023-07-29T11:12:41;26.20;99.90
10083;DHT22;5080;48.528;8.078;2023-07-29T11:15:21;26.40;99.90
10083;DHT22;5080;48.528;8.078;2023-07-29T11:17:50;26.40;99.90
10083;DHT22;5080;48.528;8.078;2023-07-29T11:20:19;26.50;99.90
10083;DHT22;5080;48.528;8.078;2023-07-29T11:22:46;26.60;99.90
10083;DHT22;5080;48.528;8.078;2023-07-29T11:25:15;26.40;99.90
10083;DHT22;5080;48.528;8.078;2023-07-29T11:27:42;26.40;99.90
10083;DHT22;5080;48.528;8.078;2023-07-29T11:30:11;26.70;99.90
10083;DHT22;5080;48.528;8.078;2023-07-29T11:32:40;26.80;99.90
10083;DHT22;5080;48.528;8.078;2023-07-29T11:35:09;26.70;99.90
10083;DHT22;5080;48.528;8.078;2023-07-29T11:37:36;26.80;99.90
10083;DHT22;5080;48.528;8.078;2023-07-29T11:40:04;26.90;99.90
10083;DHT22;5080;48.528;8.078;2023-07-29T11:42:32;27.10;99.90
10083;DHT22;5080;48.528;8.078;2023-07-29T11:44:59;27.20;99.90
10083;DHT22;5080;48.528;8.078;2023-07-29T11:47:26;27.30;99.90
10083;DHT22;5080;48.528;8.078;2023-07-29T11:49:58;27.30;99.90
10083;DHT22;5080;48.528;8.078;2023-07-29T11:52:26;27.20;99.90
10083;DHT22;5080;48.528;8.078;2023-07-29T11:54:53;27.10;99.90
10083;DHT22;5080;48.528;8.078;2023-07-29T11:57:20;27.10;99.90
10083;DHT22;5080;48.528;8.078;2023-07-29T11:59:47;27.20;99.90
10083;DHT22;5080;48.528;8.078;2023-07-29T12:02:16;27.20;99.90
10083;DHT22;5080;48.528;8.078;2023-07-29T12:04:45;27.20;99.90
10083;DHT22;5080;48.528;8.078;2023-07-29T12:07:16;27.20;99.90
10083;DHT22;5080;48.528;8.078;2023-07-29T12:09:44;27.30;99.90
10083;DHT22;5080;48.528;8.078;2023-07-29T12:12:11;27.50;99.90
10083;DHT22;5080;48.528;8.078;2023-07-29T12:14:38;27.80;99.90
10083;DHT22;5080;48.528;8.078;2023-07-29T12:17:06;28.00;99.90
10083;DHT22;5080;48.528;8.078;2023-07-29T12:19:33;28.00;99.90
10083;DHT22;5080;48.528;8.078;2023-07-29T12:22:01;28.00;99.90
10083;DHT22;5080;48.528;8.078;2023-07-29T12:24:31;27.90;99.90
10083;DHT22;5080;48.528;8.078;2023-07-29T12:26:58;27.90;99.90
10083;DHT22;5080;48.528;8.078;2023-07-29T12:29:25;28.00;99.90
10083;DHT22;5080;48.528;8.078;2023-07-29T12:31:58;27.90;99.90
10083;DHT22;5080;48.528;8.078;2023-07-29T12:34:26;27.90;99.90
10083;DHT22;5080;48.528;8.078;2023-07-29T12:36:54;28.10;99.90
10083;DHT22;5080;48.528;8.078;2023-07-29T12:39:22;28.20;99.90
10083;DHT22;5080;48.528;8.078;2023-07-29T12:41:52;28.30;99.90
10083;DHT22;5080;48.528;8.078;2023-07-29T12:44:19;28.30;99.90
10083;DHT22;5080;48.528;8.078;2023-07-29T12:46:46;28.20;99.90
10083;DHT22;5080;48.528;8.078;2023-07-29T12:49:13;28.20;99.90
10083;DHT22;5080;48.528;8.078;2023-07-29T12:51:40;28.20;99.90
10083;DHT22;5080;48.528;8.078;2023-07-29T12:54:07;28.20;99.90
10083;DHT22;5080;48.528;8.078;2023-07-29T12:56:35;28.20;99.90
10083;DHT22;5080;48.528;8.078;2023-07-29T12:59:04;28.30;99.90
10083;DHT22;5080;48.528;8.078;2023-07-29T13:01:31;28.20;99.90
10083;DHT22;5080;48.528;8.078;2023-07-29T13:03:58;28.00;99.90
10083;DHT22;5080;48.528;8.078;2023-07-29T13:06:25;27.90;99.90
10083;DHT22;5080;48.528;8.078;2023-07-29T13:08:52;27.90;99.90
10083;DHT22;5080;48.528;8.078;2023-07-29T13:11:19;27.90;99.90
10083;DHT22;5080;48.528;8.078;2023-07-29T13:13:46;28.00;99.90
10083;DHT22;5080;48.528;8.078;2023-07-29T13:16:14;27.90;99.90
10083;DHT22;5080;48.528;8.078;2023-07-29T13:18:41;27.90;99.90
10083;DHT22;5080;48.528;8.078;2023-07-29T13:21:09;27.90;99.90
10083;DHT22;5080;48.528;8.078;2023-07-29T13:23:36;27.90;99.90
10083;DHT22;5080;48.528;8.078;2023-07-29T13:26:02;27.90;99.90
10083;DHT22;5080;48.528;8.078;2023-07-29T13:28:29;28.00;99.90
10083;DHT22;5080;48.528;8.078;2023-07-29T13:30:56;28.00;99.90
10083;DHT22;5080;48.528;8.078;2023-07-29T13:33:24;28.00;99.90
10083;DHT22;5080;48.528;8.078;2023-07-29T13:35:51;28.00;99.90
10083;DHT22;5080;48.528;8.078;2023-07-29T13:38:18;28.10;99.90
10083;DHT22;5080;48.528;8.078;2023-07-29T13:40:45;28.10;99.90
10083;DHT22;5080;48.528;8.078;2023-07-29T13:43:12;27.90;99.90
10083;DHT22;5080;48.528;8.078;2023-07-29T13:45:39;27.80;99.90
10083;DHT22;5080;48.528;8.078;2023-07-29T13:48:06;27.80;99.90
10083;DHT22;5080;48.528;8.078;2023-07-29T13:50:34;27.70;99.90
10083;DHT22;5080;48.528;8.078;2023-07-29T13:53:01;27.80;99.90
10083;DHT22;5080;48.528;8.078;2023-07-29T13:55:27;27.80;99.90
10083;DHT22;5080;48.528;8.078;2023-07-29T13:57:54;27.70;99.90
10083;DHT22;5080;48.528;8.078;2023-07-29T14:00:21;27.70;99.90
10083;DHT22;5080;48.528;8.078;2023-07-29T14:02:48;27.70;99.90
10083;DHT22;5080;48.528;8.078;2023-07-29T14:05:15;27.60;99.90
10083;DHT22;5080;48.528;8.078;2023-07-29T14:07:43;27.60;99.90
10083;DHT22;5080;48.528;8.078;2023-07-29T14:10:10;27.70;99.90
10083;DHT22;5080;48.528;8.078;2023-07-29T14:12:37;27.70;99.90
10083;DHT22;5080;48.528;8.078;2023-07-29T14:15:04;27.70;99.90
10083;DHT22;5080;48.528;8.078;2023-07-29T14:17:32;27.70;99.90
10083;DHT22;5080;48.528;8.078;2023-07-29T14:19:58;27.60;99.90
10083;DHT22;5080;48.528;8.078;2023-07-29T14:22:25;27.60;99.90
10083;DHT22;5080;48.528;8.078;2023-07-29T14:24:53;27.60;99.90
10083;DHT22;5080;48.528;8.078;2023-07-29T14:27:20;27.60;99.90
10083;DHT22;5080;48.528;8.078;2023-07-29T14:29:47;27.60;99.90
10083;DHT22;5080;48.528;8.078;2023-07-29T14:32:14;27.60;99.90
10083;DHT22;5080;48.528;8.078;2023-07-29T14:34:40;27.60;99.90
10083;DHT22;5080;48.528;8.078;2023-07-29T14:37:07;27.60;99.90
10083;DHT22;5080;48.528;8.078;2023-07-29T14:39:34;27.50;99.90
10083;DHT22;5080;48.528;8.078;2023-07-29T14:42:02;27.50;99.90
10083;DHT22;5080;48.528;8.078;2023-07-29T14:44:29;27.40;99.90
10083;DHT22;5080;48.528;8.078;2023-07-29T14:46:56;27.30;99.90
10083;DHT22;5080;48.528;8.078;2023-07-29T14:49:23;27.30;99.90
10083;DHT22;5080;48.528;8.078;2023-07-29T14:51:50;27.30;99.90
10083;DHT22;5080;48.528;8.078;2023-07-29T14:54:16;27.30;99.90
10083;DHT22;5080;48.528;8.078;2023-07-29T14:56:43;27.30;99.90
10083;DHT22;5080;48.528;8.078;2023-07-29T14:59:11;27.20;99.90
10083;DHT22;5080;48.528;8.078;2023-07-29T15:01:38;27.20;99.90
10083;DHT22;5080;48.528;8.078;2023-07-29T15:04:05;27.20;99.90
10083;DHT22;5080;48.528;8.078;2023-07-29T15:06:32;27.10;99.90
10083;DHT22;5080;48.528;8.078;2023-07-29T15:08:59;27.00;99.90
10083;DHT22;5080;48.528;8.078;2023-07-29T15:11:26;27.00;99.90
10083;DHT22;5080;48.528;8.078;2023-07-29T15:13:53;26.90;99.90
10083;DHT22;5080;48.528;8.078;2023-07-29T15:16:23;26.90;99.90
10083;DHT22;5080;48.528;8.078;2023-07-29T15:18:50;27.00;99.90
10083;DHT22;5080;48.528;8.078;2023-07-29T15:21:18;27.20;99.90
10083;DHT22;5080;48.528;8.078;2023-07-29T15:23:45;27.30;99.90
10083;DHT22;5080;48.528;8.078;2023-07-29T15:26:12;27.40;99.90
10083;DHT22;5080;48.528;8.078;2023-07-29T15:28:39;27.50;99.90
10083;DHT22;5080;48.528;8.078;2023-07-29T15:31:06;27.50;99.90
10083;DHT22;5080;48.528;8.078;2023-07-29T15:33:34;27.50;99.90
10083;DHT22;5080;48.528;8.078;2023-07-29T15:36:01;27.50;99.90
10083;DHT22;5080;48.528;8.078;2023-07-29T15:38:28;27.40;99.90
10083;DHT22;5080;48.528;8.078;2023-07-29T15:40:55;27.30;99.90
10083;DHT22;5080;48.528;8.078;2023-07-29T15:43:22;27.30;99.90
10083;DHT22;5080;48.528;8.078;2023-07-29T15:45:49;27.20;99.90
10083;DHT22;5080;48.528;8.078;2023-07-29T15:48:16;27.10;99.90